A.b. York — WDJ2304 — position and weather

sailwx.info

Track history (hours):
 
Tides and Currents Weather Stations Pressure Air Temp Water Temp Dewpoint Dewpoint Depression Visibility Wind Speed Wind Dir Waves Ship Positions

A.b. York

Owner: Florida Marine, LLC, Mandeville, LA. More information available from US FCC via Universal Licensing System and Coast Guard Vessel Documentation Center.

Last reported at 2017-Nov-18 21:36 UTC. Time now 2017-Nov-22 14:44 UTC.
Position N 29°45' W 095°04'.

Length 37 m; draft 3 m.

Type: Other ship. MMSI: 367757130.

Date/timePositionNaut miles runAvg speedWind from/ knotsBaromVisibWave heightAir tempDewpointWater temp
2017-Nov-18 21:36N 29°45' W 095°04'1 6.2
2017-Nov-18 21:30N 29°44' W 095°03'3 5.4
2017-Nov-18 21:00N 29°43' W 095°01'3 5.5
2017-Nov-18 20:30N 29°41' W 094°59'3 5.3
2017-Nov-18 20:00N 29°38' W 094°58'3 5.0
2017-Nov-18 19:30N 29°36' W 094°57'3 5.2
2017-Nov-18 19:00N 29°34' W 094°55'3 5.1
2017-Nov-18 18:30N 29°32' W 094°53'70 4.1
2017-Nov-18 01:21N 30°03' W 093°42'1 4.1
2017-Nov-18 00:59N 30°04' W 093°40'2 3.9
2017-Nov-18 00:22N 30°04' W 093°37'1 3.9
2017-Nov-18 00:00N 30°04' W 093°36'2 4.0
2017-Nov-17 23:29N 30°04' W 093°34'2 4.1
2017-Nov-17 23:00N 30°04' W 093°31'2 4.2
2017-Nov-17 22:30N 30°04' W 093°29'2 4.2
2017-Nov-17 22:00N 30°04' W 093°26'2 4.2
2017-Nov-17 21:30N 30°04' W 093°24'2 4.3
2017-Nov-17 21:00N 30°04' W 093°22'2 3.3
2017-Nov-17 20:30N 30°05' W 093°20'2 3.3
2017-Nov-17 20:00N 30°06' W 093°20'3 5.1
2017-Nov-17 19:30N 30°09' W 093°20'2 3.2
2017-Nov-17 19:00N 30°10' W 093°19'0 0.1
2017-Nov-17 18:30N 30°10' W 093°19'0 0.1
2017-Nov-17 18:00N 30°10' W 093°19'0 0.1
2017-Nov-17 17:30N 30°10' W 093°19'0 0.0
2017-Nov-17 17:00N 30°10' W 093°19'0 0.0
2017-Nov-17 16:30N 30°10' W 093°19'0 0.0
2017-Nov-17 16:00N 30°10' W 093°19'0 0.0
2017-Nov-17 15:30N 30°10' W 093°19'0 0.0
2017-Nov-17 15:00N 30°10' W 093°19'0 0.0
2017-Nov-17 14:30N 30°10' W 093°19'0 0.0
2017-Nov-17 14:00N 30°10' W 093°19'0 0.0
2017-Nov-17 13:30N 30°10' W 093°19'0 0.0
2017-Nov-17 13:00N 30°10' W 093°19'0 0.0
2017-Nov-17 12:30N 30°10' W 093°19'0 0.0
2017-Nov-17 12:00N 30°10' W 093°19'0 0.0
2017-Nov-17 11:30N 30°10' W 093°19'0 0.0
2017-Nov-17 11:00N 30°10' W 093°19'0 0.0
2017-Nov-17 10:30N 30°10' W 093°19'0 0.0
2017-Nov-17 10:00N 30°10' W 093°19'0 0.0
2017-Nov-17 09:30N 30°10' W 093°19'0 0.0
2017-Nov-17 09:00N 30°10' W 093°19'0 0.0
2017-Nov-17 08:30N 30°10' W 093°19'0 0.0
2017-Nov-17 08:00N 30°10' W 093°19'0 0.0
2017-Nov-17 07:30N 30°10' W 093°19'0 0.0
2017-Nov-17 07:00N 30°10' W 093°19'0 0.0
2017-Nov-17 06:30N 30°10' W 093°19'0 0.0
2017-Nov-17 06:00N 30°10' W 093°19'0 0.0
2017-Nov-17 05:30N 30°10' W 093°19'0 0.0
2017-Nov-17 05:00N 30°10' W 093°19'0 0.0
2017-Nov-17 04:30N 30°10' W 093°19'0 0.0
2017-Nov-17 04:00N 30°10' W 093°19'0 0.0
2017-Nov-17 03:30N 30°10' W 093°19'0 0.0
2017-Nov-17 03:00N 30°10' W 093°19'0 0.0
2017-Nov-17 02:30N 30°10' W 093°19'0 0.0
2017-Nov-17 02:00N 30°10' W 093°19'0 0.0
2017-Nov-17 01:30N 30°10' W 093°19'0 0.0
2017-Nov-17 01:00N 30°10' W 093°19'0 0.0
2017-Nov-17 00:30N 30°10' W 093°19'0 0.0
2017-Nov-17 00:00N 30°10' W 093°19'0 0.0
2017-Nov-16 23:30N 30°10' W 093°19'0 0.0
2017-Nov-16 23:00N 30°10' W 093°19'0 0.0
2017-Nov-16 22:30N 30°10' W 093°19'0 0.0
2017-Nov-16 22:00N 30°10' W 093°19'0 0.0
2017-Nov-16 21:30N 30°10' W 093°19'0 0.0
2017-Nov-16 21:00N 30°10' W 093°19'0 0.0
2017-Nov-16 20:30N 30°10' W 093°19'0 0.1
2017-Nov-16 20:00N 30°10' W 093°19'0 0.0
2017-Nov-16 19:30N 30°10' W 093°19'0 0.0
2017-Nov-16 19:00N 30°10' W 093°19'0 0.0
2017-Nov-16 18:30N 30°10' W 093°19'0 0.0
2017-Nov-16 18:00N 30°10' W 093°19'0 0.1
2017-Nov-16 17:30N 30°10' W 093°19'1 1.9
2017-Nov-16 17:00N 30°10' W 093°20'2 4.1
2017-Nov-16 16:30N 30°07' W 093°20'2 4.8
2017-Nov-16 16:00N 30°05' W 093°20'1 1.8
2017-Nov-16 15:30N 30°04' W 093°21'0 0.0
2017-Nov-16 15:00N 30°04' W 093°21'0 0.0
2017-Nov-16 14:30N 30°04' W 093°21'0 0.0
2017-Nov-16 14:00N 30°04' W 093°21'0 0.0
2017-Nov-16 13:30N 30°04' W 093°21'0 0.0
2017-Nov-16 13:00N 30°04' W 093°21'0 0.0
2017-Nov-16 12:30N 30°04' W 093°21'0 0.0
2017-Nov-16 12:00N 30°04' W 093°21'0 0.0
2017-Nov-16 11:30N 30°04' W 093°21'0 0.0
2017-Nov-16 11:00N 30°04' W 093°21'0 0.0
2017-Nov-16 10:30N 30°04' W 093°21'0 0.0
2017-Nov-16 10:00N 30°04' W 093°21'0 0.0
2017-Nov-16 09:30N 30°04' W 093°21'0 0.0
2017-Nov-16 09:00N 30°04' W 093°21'0 0.0
2017-Nov-16 08:30N 30°04' W 093°21'0 0.0
2017-Nov-16 08:00N 30°04' W 093°21'0 0.0
2017-Nov-16 07:30N 30°04' W 093°21'0 0.0
2017-Nov-16 07:00N 30°04' W 093°21'0 0.0
2017-Nov-16 06:30N 30°04' W 093°21'0 0.0
2017-Nov-16 06:00N 30°04' W 093°21'0 0.0
2017-Nov-16 05:30N 30°04' W 093°21'0 0.0
2017-Nov-16 05:00N 30°04' W 093°21'0 0.0
2017-Nov-16 04:30N 30°04' W 093°21'0 0.0
2017-Nov-16 04:00N 30°04' W 093°21'0 0.0
2017-Nov-16 03:30N 30°04' W 093°21'0 0.0
2017-Nov-16 03:00N 30°04' W 093°21'0 0.0
2017-Nov-16 02:30N 30°04' W 093°21'0 0.0
2017-Nov-16 02:00N 30°04' W 093°21'0 0.0
2017-Nov-16 01:30N 30°04' W 093°21'0 0.0
2017-Nov-16 01:00N 30°04' W 093°21'0 0.0
2017-Nov-16 00:30N 30°04' W 093°21'0 0.0
2017-Nov-16 00:00N 30°04' W 093°21'0 0.0
2017-Nov-15 23:30N 30°04' W 093°21'0 0.0
2017-Nov-15 23:00N 30°04' W 093°21'0 0.0
2017-Nov-15 22:30N 30°04' W 093°21'0 0.0
2017-Nov-15 22:00N 30°04' W 093°21'0 0.0
2017-Nov-15 21:30N 30°04' W 093°21'0 0.0
2017-Nov-15 21:00N 30°04' W 093°21'0 0.0
2017-Nov-15 20:30N 30°04' W 093°21'0 0.0
2017-Nov-15 20:00N 30°04' W 093°21'0 0.0
2017-Nov-15 19:30N 30°04' W 093°21'0 0.0
2017-Nov-15 19:00N 30°04' W 093°21'0 0.0
2017-Nov-15 18:30N 30°04' W 093°21'0 0.0
2017-Nov-15 18:00N 30°04' W 093°21'0 0.0
2017-Nov-15 17:30N 30°04' W 093°21'0 0.0
2017-Nov-15 17:00N 30°04' W 093°21'0 0.0
2017-Nov-15 16:30N 30°04' W 093°21'0 0.0
2017-Nov-15 16:00N 30°04' W 093°21'0 0.0
2017-Nov-15 15:30N 30°04' W 093°21'0 0.0
2017-Nov-15 15:00N 30°04' W 093°21'0 0.0
2017-Nov-15 14:30N 30°04' W 093°21'0 0.0
2017-Nov-15 14:00N 30°04' W 093°21'0 0.0
2017-Nov-15 13:30N 30°04' W 093°21'0 0.0
2017-Nov-15 13:00N 30°04' W 093°21'0 0.0
2017-Nov-15 12:30N 30°04' W 093°21'0 0.0
2017-Nov-15 12:00N 30°04' W 093°21'0 0.0
2017-Nov-15 11:30N 30°04' W 093°21'0 0.0
2017-Nov-15 11:00N 30°04' W 093°21'0 0.0
2017-Nov-15 10:30N 30°04' W 093°21'0 0.0
2017-Nov-15 10:00N 30°04' W 093°21'0 0.0
2017-Nov-15 09:30N 30°04' W 093°21'0 0.0
2017-Nov-15 09:00N 30°04' W 093°21'0 0.0
2017-Nov-15 08:30N 30°04' W 093°21'0 0.0
2017-Nov-15 08:00N 30°04' W 093°21'0 0.0
2017-Nov-15 07:30N 30°04' W 093°21'0 0.0
2017-Nov-15 07:00N 30°04' W 093°21'0 0.0
2017-Nov-15 06:30N 30°04' W 093°21'0 0.0
2017-Nov-15 06:00N 30°04' W 093°21'0 0.0
2017-Nov-15 05:30N 30°04' W 093°21'0 0.0
2017-Nov-15 05:00N 30°04' W 093°21'0 0.0
2017-Nov-15 04:30N 30°04' W 093°21'0 0.0
2017-Nov-15 04:00N 30°04' W 093°21'0 0.0
2017-Nov-15 03:30N 30°04' W 093°21'0 0.0
2017-Nov-15 03:00N 30°04' W 093°21'0 0.0
2017-Nov-15 02:30N 30°04' W 093°21'0 0.0
2017-Nov-15 02:00N 30°04' W 093°21'0 0.0
2017-Nov-15 01:30N 30°04' W 093°21'0 0.0
2017-Nov-15 01:00N 30°04' W 093°21'0 0.1
2017-Nov-15 00:30N 30°04' W 093°21'1 1.6
2017-Nov-15 00:00N 30°04' W 093°21'0 0.0
2017-Nov-14 23:30N 30°04' W 093°21'1 1.8
2017-Nov-14 23:00N 30°04' W 093°21'0 0.0
2017-Nov-14 22:30N 30°04' W 093°21'0 0.0
2017-Nov-14 22:00N 30°04' W 093°21'0 0.0
2017-Nov-14 21:30N 30°04' W 093°21'0 0.0
2017-Nov-14 21:00N 30°04' W 093°21'0 0.0
2017-Nov-14 20:30N 30°04' W 093°21'0 0.0
2017-Nov-14 20:00N 30°04' W 093°21'0 0.0
2017-Nov-14 19:30N 30°04' W 093°21'0 0.0
2017-Nov-14 19:00N 30°04' W 093°20'0 0.0
2017-Nov-14 18:30N 30°04' W 093°21'0 0.0
2017-Nov-14 18:00N 30°04' W 093°21'0 0.0
2017-Nov-14 17:30N 30°04' W 093°21'0 0.0
2017-Nov-14 17:00N 30°04' W 093°21'0 0.0
2017-Nov-14 16:30N 30°04' W 093°21'0 0.0
2017-Nov-14 16:00N 30°04' W 093°21'0 0.0
2017-Nov-14 15:30N 30°04' W 093°21'0 0.0
2017-Nov-14 15:00N 30°04' W 093°21'0 0.0
2017-Nov-14 14:30N 30°04' W 093°21'0 0.0
2017-Nov-14 13:59N 30°04' W 093°20'0 0.0
2017-Nov-14 13:30N 30°04' W 093°21'0 0.0
2017-Nov-14 13:00N 30°04' W 093°21'0 0.0
2017-Nov-14 12:30N 30°04' W 093°21'0 0.0
2017-Nov-14 11:43N 30°04' W 093°21'0 0.0
2017-Nov-14 11:03N 30°04' W 093°21'0 0.1
2017-Nov-14 10:59N 30°04' W 093°21'0 0.0
2017-Nov-14 01:42N 30°04' W 093°21'0 0.0
2017-Nov-14 01:13N 30°04' W 093°21'0 0.0
2017-Nov-14 00:53N 30°04' W 093°21'0 0.0
2017-Nov-13 21:47N 30°04' W 093°21'0 0.0
2017-Nov-13 01:04N 30°04' W 093°21'0 0.0
2017-Nov-13 00:59N 30°04' W 093°21'0 0.0
2017-Nov-12 23:49N 30°04' W 093°21'0 0.0
2017-Nov-12 23:29N 30°04' W 093°21'0 0.0
2017-Nov-12 22:57N 30°04' W 093°21'0 0.0
2017-Nov-12 22:23N 30°04' W 093°21'1 1.0
2017-Nov-12 21:29N 30°05' W 093°20'0 0.0
2017-Nov-12 20:37N 30°05' W 093°20'0 0.0
2017-Nov-12 20:29N 30°05' W 093°20'0 0.0
2017-Nov-12 19:53N 30°05' W 093°20'0 0.0
2017-Nov-12 18:59N 30°05' W 093°20'3 2.4
2017-Nov-12 17:38N 30°04' W 093°23'1 4.7
2017-Nov-12 17:27N 30°04' W 093°24'3 4.7
2017-Nov-12 16:49N 30°04' W 093°28'1 4.2
2017-Nov-12 16:30N 30°04' W 093°29'58 4.3
2017-Nov-12 03:01N 29°34' W 094°27'0 4.4
2017-Nov-12 03:00N 29°34' W 094°27'23 4.0
2017-Nov-11 21:11N 29°32' W 094°54'2 5.9
2017-Nov-11 20:46N 29°34' W 094°55'2 6.1
2017-Nov-11 20:30N 29°35' W 094°56'3 5.7
2017-Nov-11 20:00N 29°38' W 094°58'3 5.3
2017-Nov-11 19:30N 29°40' W 094°59'3 5.4
2017-Nov-11 19:00N 29°42' W 095°01'3 5.2
2017-Nov-11 18:27N 29°44' W 095°03'3 4.3
2017-Nov-11 17:46N 29°44' W 095°07'2 5.9
2017-Nov-11 17:30N 29°44' W 095°08'1 0.5
2017-Nov-11 14:56N 29°44' W 095°10'0 0.0
2017-Nov-11 14:30N 29°44' W 095°10'0 0.0
2017-Nov-11 14:00N 29°44' W 095°10'0 0.0
2017-Nov-11 13:30N 29°44' W 095°10'0 0.0
2017-Nov-11 13:00N 29°44' W 095°10'0 0.0
2017-Nov-11 12:30N 29°44' W 095°10'0 0.0
2017-Nov-11 12:00N 29°44' W 095°10'0 0.0
2017-Nov-11 11:29N 29°44' W 095°10'0 0.0
2017-Nov-11 11:00N 29°44' W 095°10'0 0.0
2017-Nov-11 10:29N 29°44' W 095°10'0 0.0
2017-Nov-11 09:50N 29°44' W 095°10'0 0.0
2017-Nov-11 09:20N 29°44' W 095°10'0 0.0
2017-Nov-11 08:59N 29°44' W 095°10'0 0.0
2017-Nov-11 08:29N 29°44' W 095°10'0 0.0
2017-Nov-11 08:00N 29°44' W 095°10'0 0.0
2017-Nov-11 07:30N 29°44' W 095°10'0 0.0
2017-Nov-11 07:00N 29°44' W 095°10'0 0.0
2017-Nov-11 06:30N 29°44' W 095°10'0 0.0
2017-Nov-11 06:00N 29°44' W 095°10'0 0.0
2017-Nov-11 05:30N 29°44' W 095°10'0 0.0
2017-Nov-11 05:00N 29°44' W 095°10'0 0.0
2017-Nov-11 04:30N 29°44' W 095°10'0 0.0
2017-Nov-11 04:00N 29°44' W 095°10'0 0.0
2017-Nov-11 03:30N 29°44' W 095°10'0 0.0
2017-Nov-11 03:00N 29°44' W 095°10'0 0.0
2017-Nov-11 02:30N 29°44' W 095°10'0 0.0
2017-Nov-11 02:00N 29°44' W 095°10'0 0.0
2017-Nov-11 01:29N 29°44' W 095°10'0 0.0
2017-Nov-11 00:49N 29°44' W 095°10'0 0.0
2017-Nov-11 00:03N 29°44' W 095°10'0 0.0
2017-Nov-10 23:59N 29°44' W 095°10'0 0.0
2017-Nov-10 16:53N 29°45' W 095°10'3 0.4
2017-Nov-10 08:05N 29°45' W 095°06'0 4.9
2017-Nov-10 08:00N 29°45' W 095°06'3 1.5
2017-Nov-10 06:03N 29°47' W 095°04'0 0.1
2017-Nov-10 05:55N 29°47' W 095°04'0 0.0
2017-Nov-10 05:28N 29°47' W 095°04'2 1.1
2017-Nov-10 03:25N 29°46' W 095°05'1 0.1
2017-Nov-09 16:23N 29°46' W 095°06'0 0.0
2017-Nov-09 15:55N 29°46' W 095°06'0 0.0
2017-Nov-09 15:30N 29°46' W 095°06'1 0.1
2017-Nov-09 05:20N 29°45' W 095°06'  
Track history (hours):
 
Tides and Currents Weather Stations Pressure Air Temp Water Temp Dewpoint Dewpoint Depression Visibility Wind Speed Wind Dir Waves Ship Positions

A.b. York

Owner: Florida Marine, LLC, Mandeville, LA. More information available from US FCC via Universal Licensing System and Coast Guard Vessel Documentation Center.

Last reported at 2017-Nov-18 21:36 UTC. Time now 2017-Nov-22 14:44 UTC.
Position N 29°45' W 095°04'.

Length 37 m; draft 3 m.

Type: Other ship. MMSI: 367757130.

Date/timePositionNaut miles runAvg speedWind from/ knotsBaromVisibWave heightAir tempDewpointWater temp
2017-Nov-18 21:36N 29°45' W 095°04'1 6.2
2017-Nov-18 21:30N 29°44' W 095°03'3 5.4
2017-Nov-18 21:00N 29°43' W 095°01'3 5.5
2017-Nov-18 20:30N 29°41' W 094°59'3 5.3
2017-Nov-18 20:00N 29°38' W 094°58'3 5.0
2017-Nov-18 19:30N 29°36' W 094°57'3 5.2
2017-Nov-18 19:00N 29°34' W 094°55'3 5.1
2017-Nov-18 18:30N 29°32' W 094°53'70 4.1
2017-Nov-18 01:21N 30°03' W 093°42'1 4.1
2017-Nov-18 00:59N 30°04' W 093°40'2 3.9
2017-Nov-18 00:22N 30°04' W 093°37'1 3.9
2017-Nov-18 00:00N 30°04' W 093°36'2 4.0
2017-Nov-17 23:29N 30°04' W 093°34'2 4.1
2017-Nov-17 23:00N 30°04' W 093°31'2 4.2
2017-Nov-17 22:30N 30°04' W 093°29'2 4.2
2017-Nov-17 22:00N 30°04' W 093°26'2 4.2
2017-Nov-17 21:30N 30°04' W 093°24'2 4.3
2017-Nov-17 21:00N 30°04' W 093°22'2 3.3
2017-Nov-17 20:30N 30°05' W 093°20'2 3.3
2017-Nov-17 20:00N 30°06' W 093°20'3 5.1
2017-Nov-17 19:30N 30°09' W 093°20'2 3.2
2017-Nov-17 19:00N 30°10' W 093°19'0 0.1
2017-Nov-17 18:30N 30°10' W 093°19'0 0.1
2017-Nov-17 18:00N 30°10' W 093°19'0 0.1
2017-Nov-17 17:30N 30°10' W 093°19'0 0.0
2017-Nov-17 17:00N 30°10' W 093°19'0 0.0
2017-Nov-17 16:30N 30°10' W 093°19'0 0.0
2017-Nov-17 16:00N 30°10' W 093°19'0 0.0
2017-Nov-17 15:30N 30°10' W 093°19'0 0.0
2017-Nov-17 15:00N 30°10' W 093°19'0 0.0
2017-Nov-17 14:30N 30°10' W 093°19'0 0.0
2017-Nov-17 14:00N 30°10' W 093°19'0 0.0
2017-Nov-17 13:30N 30°10' W 093°19'0 0.0
2017-Nov-17 13:00N 30°10' W 093°19'0 0.0
2017-Nov-17 12:30N 30°10' W 093°19'0 0.0
2017-Nov-17 12:00N 30°10' W 093°19'0 0.0
2017-Nov-17 11:30N 30°10' W 093°19'0 0.0
2017-Nov-17 11:00N 30°10' W 093°19'0 0.0
2017-Nov-17 10:30N 30°10' W 093°19'0 0.0
2017-Nov-17 10:00N 30°10' W 093°19'0 0.0
2017-Nov-17 09:30N 30°10' W 093°19'0 0.0
2017-Nov-17 09:00N 30°10' W 093°19'0 0.0
2017-Nov-17 08:30N 30°10' W 093°19'0 0.0
2017-Nov-17 08:00N 30°10' W 093°19'0 0.0
2017-Nov-17 07:30N 30°10' W 093°19'0 0.0
2017-Nov-17 07:00N 30°10' W 093°19'0 0.0
2017-Nov-17 06:30N 30°10' W 093°19'0 0.0
2017-Nov-17 06:00N 30°10' W 093°19'0 0.0
2017-Nov-17 05:30N 30°10' W 093°19'0 0.0
2017-Nov-17 05:00N 30°10' W 093°19'0 0.0
2017-Nov-17 04:30N 30°10' W 093°19'0 0.0
2017-Nov-17 04:00N 30°10' W 093°19'0 0.0
2017-Nov-17 03:30N 30°10' W 093°19'0 0.0
2017-Nov-17 03:00N 30°10' W 093°19'0 0.0
2017-Nov-17 02:30N 30°10' W 093°19'0 0.0
2017-Nov-17 02:00N 30°10' W 093°19'0 0.0
2017-Nov-17 01:30N 30°10' W 093°19'0 0.0
2017-Nov-17 01:00N 30°10' W 093°19'0 0.0
2017-Nov-17 00:30N 30°10' W 093°19'0 0.0
2017-Nov-17 00:00N 30°10' W 093°19'0 0.0
2017-Nov-16 23:30N 30°10' W 093°19'0 0.0
2017-Nov-16 23:00N 30°10' W 093°19'0 0.0
2017-Nov-16 22:30N 30°10' W 093°19'0 0.0
2017-Nov-16 22:00N 30°10' W 093°19'0 0.0
2017-Nov-16 21:30N 30°10' W 093°19'0 0.0
2017-Nov-16 21:00N 30°10' W 093°19'0 0.0
2017-Nov-16 20:30N 30°10' W 093°19'0 0.1
2017-Nov-16 20:00N 30°10' W 093°19'0 0.0
2017-Nov-16 19:30N 30°10' W 093°19'0 0.0
2017-Nov-16 19:00N 30°10' W 093°19'0 0.0
2017-Nov-16 18:30N 30°10' W 093°19'0 0.0
2017-Nov-16 18:00N 30°10' W 093°19'0 0.1
2017-Nov-16 17:30N 30°10' W 093°19'1 1.9
2017-Nov-16 17:00N 30°10' W 093°20'2 4.1
2017-Nov-16 16:30N 30°07' W 093°20'2 4.8
2017-Nov-16 16:00N 30°05' W 093°20'1 1.8
2017-Nov-16 15:30N 30°04' W 093°21'0 0.0
2017-Nov-16 15:00N 30°04' W 093°21'0 0.0
2017-Nov-16 14:30N 30°04' W 093°21'0 0.0
2017-Nov-16 14:00N 30°04' W 093°21'0 0.0
2017-Nov-16 13:30N 30°04' W 093°21'0 0.0
2017-Nov-16 13:00N 30°04' W 093°21'0 0.0
2017-Nov-16 12:30N 30°04' W 093°21'0 0.0
2017-Nov-16 12:00N 30°04' W 093°21'0 0.0
2017-Nov-16 11:30N 30°04' W 093°21'0 0.0
2017-Nov-16 11:00N 30°04' W 093°21'0 0.0
2017-Nov-16 10:30N 30°04' W 093°21'0 0.0
2017-Nov-16 10:00N 30°04' W 093°21'0 0.0
2017-Nov-16 09:30N 30°04' W 093°21'0 0.0
2017-Nov-16 09:00N 30°04' W 093°21'0 0.0
2017-Nov-16 08:30N 30°04' W 093°21'0 0.0
2017-Nov-16 08:00N 30°04' W 093°21'0 0.0
2017-Nov-16 07:30N 30°04' W 093°21'0 0.0
2017-Nov-16 07:00N 30°04' W 093°21'0 0.0
2017-Nov-16 06:30N 30°04' W 093°21'0 0.0
2017-Nov-16 06:00N 30°04' W 093°21'0 0.0
2017-Nov-16 05:30N 30°04' W 093°21'0 0.0
2017-Nov-16 05:00N 30°04' W 093°21'0 0.0
2017-Nov-16 04:30N 30°04' W 093°21'0 0.0
2017-Nov-16 04:00N 30°04' W 093°21'0 0.0
2017-Nov-16 03:30N 30°04' W 093°21'0 0.0
2017-Nov-16 03:00N 30°04' W 093°21'0 0.0
2017-Nov-16 02:30N 30°04' W 093°21'0 0.0
2017-Nov-16 02:00N 30°04' W 093°21'0 0.0
2017-Nov-16 01:30N 30°04' W 093°21'0 0.0
2017-Nov-16 01:00N 30°04' W 093°21'0 0.0
2017-Nov-16 00:30N 30°04' W 093°21'0 0.0
2017-Nov-16 00:00N 30°04' W 093°21'0 0.0
2017-Nov-15 23:30N 30°04' W 093°21'0 0.0
2017-Nov-15 23:00N 30°04' W 093°21'0 0.0
2017-Nov-15 22:30N 30°04' W 093°21'0 0.0
2017-Nov-15 22:00N 30°04' W 093°21'0 0.0
2017-Nov-15 21:30N 30°04' W 093°21'0 0.0
2017-Nov-15 21:00N 30°04' W 093°21'0 0.0
2017-Nov-15 20:30N 30°04' W 093°21'0 0.0
2017-Nov-15 20:00N 30°04' W 093°21'0 0.0
2017-Nov-15 19:30N 30°04' W 093°21'0 0.0
2017-Nov-15 19:00N 30°04' W 093°21'0 0.0
2017-Nov-15 18:30N 30°04' W 093°21'0 0.0
2017-Nov-15 18:00N 30°04' W 093°21'0 0.0
2017-Nov-15 17:30N 30°04' W 093°21'0 0.0
2017-Nov-15 17:00N 30°04' W 093°21'0 0.0
2017-Nov-15 16:30N 30°04' W 093°21'0 0.0
2017-Nov-15 16:00N 30°04' W 093°21'0 0.0
2017-Nov-15 15:30N 30°04' W 093°21'0 0.0
2017-Nov-15 15:00N 30°04' W 093°21'0 0.0
2017-Nov-15 14:30N 30°04' W 093°21'0 0.0
2017-Nov-15 14:00N 30°04' W 093°21'0 0.0
2017-Nov-15 13:30N 30°04' W 093°21'0 0.0
2017-Nov-15 13:00N 30°04' W 093°21'0 0.0
2017-Nov-15 12:30N 30°04' W 093°21'0 0.0
2017-Nov-15 12:00N 30°04' W 093°21'0 0.0
2017-Nov-15 11:30N 30°04' W 093°21'0 0.0
2017-Nov-15 11:00N 30°04' W 093°21'0 0.0
2017-Nov-15 10:30N 30°04' W 093°21'0 0.0
2017-Nov-15 10:00N 30°04' W 093°21'0 0.0
2017-Nov-15 09:30N 30°04' W 093°21'0 0.0
2017-Nov-15 09:00N 30°04' W 093°21'0 0.0
2017-Nov-15 08:30N 30°04' W 093°21'0 0.0
2017-Nov-15 08:00N 30°04' W 093°21'0 0.0
2017-Nov-15 07:30N 30°04' W 093°21'0 0.0
2017-Nov-15 07:00N 30°04' W 093°21'0 0.0
2017-Nov-15 06:30N 30°04' W 093°21'0 0.0
2017-Nov-15 06:00N 30°04' W 093°21'0 0.0
2017-Nov-15 05:30N 30°04' W 093°21'0 0.0
2017-Nov-15 05:00N 30°04' W 093°21'0 0.0
2017-Nov-15 04:30N 30°04' W 093°21'0 0.0
2017-Nov-15 04:00N 30°04' W 093°21'0 0.0
2017-Nov-15 03:30N 30°04' W 093°21'0 0.0
2017-Nov-15 03:00N 30°04' W 093°21'0 0.0
2017-Nov-15 02:30N 30°04' W 093°21'0 0.0
2017-Nov-15 02:00N 30°04' W 093°21'0 0.0
2017-Nov-15 01:30N 30°04' W 093°21'0 0.0
2017-Nov-15 01:00N 30°04' W 093°21'0 0.1
2017-Nov-15 00:30N 30°04' W 093°21'1 1.6
2017-Nov-15 00:00N 30°04' W 093°21'0 0.0
2017-Nov-14 23:30N 30°04' W 093°21'1 1.8
2017-Nov-14 23:00N 30°04' W 093°21'0 0.0
2017-Nov-14 22:30N 30°04' W 093°21'0 0.0
2017-Nov-14 22:00N 30°04' W 093°21'0 0.0
2017-Nov-14 21:30N 30°04' W 093°21'0 0.0
2017-Nov-14 21:00N 30°04' W 093°21'0 0.0
2017-Nov-14 20:30N 30°04' W 093°21'0 0.0
2017-Nov-14 20:00N 30°04' W 093°21'0 0.0
2017-Nov-14 19:30N 30°04' W 093°21'0 0.0
2017-Nov-14 19:00N 30°04' W 093°20'0 0.0
2017-Nov-14 18:30N 30°04' W 093°21'0 0.0
2017-Nov-14 18:00N 30°04' W 093°21'0 0.0
2017-Nov-14 17:30N 30°04' W 093°21'0 0.0
2017-Nov-14 17:00N 30°04' W 093°21'0 0.0
2017-Nov-14 16:30N 30°04' W 093°21'0 0.0
2017-Nov-14 16:00N 30°04' W 093°21'0 0.0
2017-Nov-14 15:30N 30°04' W 093°21'0 0.0
2017-Nov-14 15:00N 30°04' W 093°21'0 0.0
2017-Nov-14 14:30N 30°04' W 093°21'0 0.0
2017-Nov-14 13:59N 30°04' W 093°20'0 0.0
2017-Nov-14 13:30N 30°04' W 093°21'0 0.0
2017-Nov-14 13:00N 30°04' W 093°21'0 0.0
2017-Nov-14 12:30N 30°04' W 093°21'0 0.0
2017-Nov-14 11:43N 30°04' W 093°21'0 0.0
2017-Nov-14 11:03N 30°04' W 093°21'0 0.1
2017-Nov-14 10:59N 30°04' W 093°21'0 0.0
2017-Nov-14 01:42N 30°04' W 093°21'0 0.0
2017-Nov-14 01:13N 30°04' W 093°21'0 0.0
2017-Nov-14 00:53N 30°04' W 093°21'0 0.0
2017-Nov-13 21:47N 30°04' W 093°21'0 0.0
2017-Nov-13 01:04N 30°04' W 093°21'0 0.0
2017-Nov-13 00:59N 30°04' W 093°21'0 0.0
2017-Nov-12 23:49N 30°04' W 093°21'0 0.0
2017-Nov-12 23:29N 30°04' W 093°21'0 0.0
2017-Nov-12 22:57N 30°04' W 093°21'0 0.0
2017-Nov-12 22:23N 30°04' W 093°21'1 1.0
2017-Nov-12 21:29N 30°05' W 093°20'0 0.0
2017-Nov-12 20:37N 30°05' W 093°20'0 0.0
2017-Nov-12 20:29N 30°05' W 093°20'0 0.0
2017-Nov-12 19:53N 30°05' W 093°20'0 0.0
2017-Nov-12 18:59N 30°05' W 093°20'3 2.4
2017-Nov-12 17:38N 30°04' W 093°23'1 4.7
2017-Nov-12 17:27N 30°04' W 093°24'3 4.7
2017-Nov-12 16:49N 30°04' W 093°28'1 4.2
2017-Nov-12 16:30N 30°04' W 093°29'58 4.3
2017-Nov-12 03:01N 29°34' W 094°27'0 4.4
2017-Nov-12 03:00N 29°34' W 094°27'23 4.0
2017-Nov-11 21:11N 29°32' W 094°54'2 5.9
2017-Nov-11 20:46N 29°34' W 094°55'2 6.1
2017-Nov-11 20:30N 29°35' W 094°56'3 5.7
2017-Nov-11 20:00N 29°38' W 094°58'3 5.3
2017-Nov-11 19:30N 29°40' W 094°59'3 5.4
2017-Nov-11 19:00N 29°42' W 095°01'3 5.2
2017-Nov-11 18:27N 29°44' W 095°03'3 4.3
2017-Nov-11 17:46N 29°44' W 095°07'2 5.9
2017-Nov-11 17:30N 29°44' W 095°08'1 0.5
2017-Nov-11 14:56N 29°44' W 095°10'0 0.0
2017-Nov-11 14:30N 29°44' W 095°10'0 0.0
2017-Nov-11 14:00N 29°44' W 095°10'0 0.0
2017-Nov-11 13:30N 29°44' W 095°10'0 0.0
2017-Nov-11 13:00N 29°44' W 095°10'0 0.0
2017-Nov-11 12:30N 29°44' W 095°10'0 0.0
2017-Nov-11 12:00N 29°44' W 095°10'0 0.0
2017-Nov-11 11:29N 29°44' W 095°10'0 0.0
2017-Nov-11 11:00N 29°44' W 095°10'0 0.0
2017-Nov-11 10:29N 29°44' W 095°10'0 0.0
2017-Nov-11 09:50N 29°44' W 095°10'0 0.0
2017-Nov-11 09:20N 29°44' W 095°10'0 0.0
2017-Nov-11 08:59N 29°44' W 095°10'0 0.0
2017-Nov-11 08:29N 29°44' W 095°10'0 0.0
2017-Nov-11 08:00N 29°44' W 095°10'0 0.0
2017-Nov-11 07:30N 29°44' W 095°10'0 0.0
2017-Nov-11 07:00N 29°44' W 095°10'0 0.0
2017-Nov-11 06:30N 29°44' W 095°10'0 0.0
2017-Nov-11 06:00N 29°44' W 095°10'0 0.0
2017-Nov-11 05:30N 29°44' W 095°10'0 0.0
2017-Nov-11 05:00N 29°44' W 095°10'0 0.0
2017-Nov-11 04:30N 29°44' W 095°10'0 0.0
2017-Nov-11 04:00N 29°44' W 095°10'0 0.0
2017-Nov-11 03:30N 29°44' W 095°10'0 0.0
2017-Nov-11 03:00N 29°44' W 095°10'0 0.0
2017-Nov-11 02:30N 29°44' W 095°10'0 0.0
2017-Nov-11 02:00N 29°44' W 095°10'0 0.0
2017-Nov-11 01:29N 29°44' W 095°10'0 0.0
2017-Nov-11 00:49N 29°44' W 095°10'0 0.0
2017-Nov-11 00:03N 29°44' W 095°10'0 0.0
2017-Nov-10 23:59N 29°44' W 095°10'0 0.0
2017-Nov-10 16:53N 29°45' W 095°10'3 0.4
2017-Nov-10 08:05N 29°45' W 095°06'0 4.9
2017-Nov-10 08:00N 29°45' W 095°06'3 1.5
2017-Nov-10 06:03N 29°47' W 095°04'0 0.1
2017-Nov-10 05:55N 29°47' W 095°04'0 0.0
2017-Nov-10 05:28N 29°47' W 095°04'2 1.1
2017-Nov-10 03:25N 29°46' W 095°05'1 0.1
2017-Nov-09 16:23N 29°46' W 095°06'0 0.0
2017-Nov-09 15:55N 29°46' W 095°06'0 0.0
2017-Nov-09 15:30N 29°46' W 095°06'1 0.1
2017-Nov-09 05:20N 29°45' W 095°06'  

Dump ship's entire track history